Time;durP1;ratioP1;P1;durP2;ratioP2;P2;SDS_P1;SDS_P2;PMS_P1;PMS_P2;Temp;Humidity;BMP_temperature;BMP_pressure;BME280_temperature;BME280_humidity;BME280_pressure;Samples;Min_cycle;Max_cycle;Signal;HPM_P1;HPM_P2
2022/11/25 00:02:18;;;;;;;15.20;7.28;;;7.20;99.90;;;;;;4936767;28;94860;-33
2022/11/25 00:04:44;;;;;;;24.60;7.18;;;7.30;99.90;;;;;;4934043;28;93964;-33
2022/11/25 00:07:10;;;;;;;12.75;7.38;;;7.30;99.90;;;;;;4937098;28;94095;-33
2022/11/25 00:09:35;;;;;;;10.38;6.72;;;7.30;99.90;;;;;;4936543;28;93404;-32
2022/11/25 00:12:01;;;;;;;15.25;7.35;;;7.30;99.90;;;;;;4937027;28;94782;-33
2022/11/25 00:14:26;;;;;;;14.07;6.93;;;7.30;99.90;;;;;;4936173;28;95044;-31
2022/11/25 00:16:52;;;;;;;16.63;6.93;;;7.30;99.90;;;;;;4935862;28;95189;-31
2022/11/25 00:19:18;;;;;;;16.63;7.25;;;7.30;99.90;;;;;;4936621;28;94464;-35
2022/11/25 00:21:43;;;;;;;19.92;7.53;;;7.30;99.90;;;;;;4935940;28;94646;-34
2022/11/25 00:24:13;;;;;;;13.95;7.50;;;7.30;99.90;;;;;;4936855;28;94121;-34
2022/11/25 00:26:38;;;;;;;15.10;6.20;;;7.30;99.90;;;;;;4936846;28;93709;-35
2022/11/25 00:29:06;;;;;;;18.13;7.25;;;7.30;99.90;;;;;;4936430;28;93389;-32
2022/11/25 00:31:34;;;;;;;15.82;6.38;;;7.30;99.90;;;;;;4935896;28;94831;-31
2022/11/25 00:34:01;;;;;;;16.75;7.13;;;7.20;99.90;;;;;;4936637;28;94760;-31
2022/11/25 00:36:31;;;;;;;24.38;7.40;;;7.30;99.90;;;;;;4937046;28;94319;-35
2022/11/25 00:38:58;;;;;;;24.58;7.00;;;7.30;99.90;;;;;;4936278;28;92107;-33
2022/11/25 00:46:56;;;;;;;11.80;7.35;;;7.30;99.90;;;;;;4940099;28;92136;-34
2022/11/25 00:49:22;;;;;;;16.13;6.18;;;7.30;99.90;;;;;;4939817;28;93464;-33
2022/11/25 00:51:48;;;;;;;10.38;6.93;;;7.30;99.90;;;;;;4938868;28;94664;-34
2022/11/25 00:54:14;;;;;;;22.00;6.75;;;7.30;99.90;;;;;;4939128;28;94393;-35
2022/11/25 00:56:40;;;;;;;11.32;6.45;;;7.30;99.90;;;;;;4940077;28;94781;-33
2022/11/25 00:59:06;;;;;;;10.82;5.85;;;7.40;99.90;;;;;;4939787;28;92460;-32
2022/11/25 01:01:31;;;;;;;14.57;7.53;;;7.40;99.90;;;;;;4939060;28;96054;-32
2022/11/25 01:03:57;;;;;;;20.92;7.15;;;7.40;99.90;;;;;;4939116;28;93350;-32
2022/11/25 01:06:23;;;;;;;12.50;6.88;;;7.40;99.90;;;;;;4939213;28;93595;-35
2022/11/25 01:08:49;;;;;;;11.48;6.20;;;7.30;99.90;;;;;;4937873;28;94342;-33
2022/11/25 01:11:17;;;;;;;17.58;7.20;;;7.30;99.90;;;;;;4938839;28;93922;-32
2022/11/25 01:13:43;;;;;;;12.60;5.78;;;7.30;99.90;;;;;;4939262;28;94451;-33
2022/11/25 01:16:12;;;;;;;11.02;6.90;;;7.30;99.90;;;;;;4939255;28;92586;-32
2022/11/25 01:18:38;;;;;;;13.60;5.97;;;7.20;99.90;;;;;;4937847;28;94600;-32
2022/11/25 01:21:09;;;;;;;13.30;5.88;;;7.20;99.90;;;;;;4932927;28;94379;-32
2022/11/25 01:23:36;;;;;;;13.90;6.32;;;7.20;99.90;;;;;;4938716;28;95515;-33
2022/11/25 01:26:06;;;;;;;9.55;6.55;;;7.20;99.90;;;;;;4939301;28;93957;-34
2022/11/25 01:28:33;;;;;;;9.77;5.85;;;7.10;99.90;;;;;;4938370;28;93889;-34
2022/11/25 01:31:10;;;;;;;14.25;6.63;;;7.10;99.90;;;;;;4938853;28;95954;-33
2022/11/25 01:33:36;;;;;;;15.27;6.07;;;7.10;99.90;;;;;;4938317;28;96427;-33
2022/11/25 01:36:07;;;;;;;14.93;6.55;;;7.10;99.90;;;;;;4938136;28;93875;-32
2022/11/25 01:38:33;;;;;;;12.43;6.10;;;7.00;99.90;;;;;;4937929;28;94370;-33
2022/11/25 01:40:59;;;;;;;20.83;6.45;;;7.10;99.90;;;;;;4939101;28;94542;-35
2022/11/25 01:43:25;;;;;;;12.13;5.28;;;7.10;99.90;;;;;;4938228;28;95849;-33
2022/11/25 01:46:09;;;;;;;17.33;6.90;;;7.10;99.90;;;;;;4939105;28;94627;-32
2022/11/25 01:48:42;;;;;;;17.38;6.78;;;7.20;99.90;;;;;;4938712;28;92157;-34
2022/11/25 01:51:26;;;;;;;15.65;6.43;;;7.20;99.90;;;;;;4938545;28;94867;-35
2022/11/25 01:53:58;;;;;;;14.43;6.40;;;7.20;99.90;;;;;;4938589;28;94998;-33
2022/11/25 01:56:27;;;;;;;12.23;5.45;;;7.20;99.90;;;;;;4937763;28;94289;-34
2022/11/25 01:58:53;;;;;;;13.95;6.90;;;7.20;99.90;;;;;;4938619;28;94424;-32
2022/11/25 02:01:20;;;;;;;15.18;7.32;;;7.30;99.90;;;;;;4938807;28;94705;-35
2022/11/25 02:03:49;;;;;;;13.68;5.88;;;7.30;99.90;;;;;;4937605;28;94598;-33
2022/11/25 02:06:27;;;;;;;15.75;5.97;;;7.40;99.90;;;;;;4938437;28;94515;-34
2022/11/25 02:08:57;;;;;;;11.38;6.43;;;7.40;99.90;;;;;;4938305;28;93103;-32
2022/11/25 02:11:25;;;;;;;13.13;6.20;;;7.40;99.90;;;;;;4938679;28;95028;-32
2022/11/25 02:13:51;;;;;;;10.38;5.38;;;7.40;99.90;;;;;;4939010;28;94441;-33
2022/11/25 02:16:17;;;;;;;14.93;8.07;;;7.40;99.90;;;;;;4938254;28;94638;-35
2022/11/25 02:18:42;;;;;;;11.70;5.78;;;7.40;99.90;;;;;;4938002;28;94375;-35
2022/11/25 02:21:08;;;;;;;13.50;6.07;;;7.40;99.90;;;;;;4937860;28;95470;-32
2022/11/25 02:24:12;;;;;;;15.18;5.63;;;7.40;99.90;;;;;;4937294;28;95606;-32
2022/11/25 02:26:38;;;;;;;22.45;6.45;;;7.40;99.90;;;;;;4928657;28;92444;-33
2022/11/25 02:29:03;;;;;;;20.42;7.20;;;7.50;99.90;;;;;;4938240;28;94830;-31
2022/11/25 02:31:29;;;;;;;19.95;6.75;;;7.50;99.90;;;;;;4937678;28;94802;-35
2022/11/25 02:33:54;;;;;;;14.32;6.55;;;7.40;99.90;;;;;;4938599;28;94664;-32
2022/11/25 02:36:22;;;;;;;15.23;6.57;;;7.40;99.90;;;;;;4937994;28;93168;-32
2022/11/25 02:38:55;;;;;;;17.50;6.73;;;7.40;99.90;;;;;;4937979;28;93072;-34
2022/11/25 02:41:30;;;;;;;18.13;6.78;;;7.40;99.90;;;;;;4936314;28;94873;-35
2022/11/25 02:43:56;;;;;;;17.25;6.90;;;7.40;99.90;;;;;;4938219;28;94591;-35
2022/11/25 02:46:24;;;;;;;17.90;6.18;;;7.40;99.90;;;;;;4937876;28;95559;-33
2022/11/25 02:48:52;;;;;;;17.13;7.07;;;7.40;99.90;;;;;;4937910;28;93538;-32
2022/11/25 02:51:20;;;;;;;23.02;7.05;;;7.40;99.90;;;;;;4937620;28;95890;-32
2022/11/25 02:53:46;;;;;;;18.90;7.07;;;7.30;99.90;;;;;;4937632;28;95076;-32
2022/11/25 02:56:13;;;;;;;20.90;9.00;;;7.30;99.90;;;;;;4938504;28;93394;-32
2022/11/25 02:58:39;;;;;;;12.43;7.50;;;7.30;99.90;;;;;;4936534;28;93030;-33
2022/11/25 03:01:04;;;;;;;12.93;6.43;;;7.30;99.90;;;;;;4938199;28;95292;-32
2022/11/25 03:03:30;;;;;;;11.68;6.57;;;7.30;99.90;;;;;;4937327;28;94606;-33
2022/11/25 03:05:56;;;;;;;18.25;6.70;;;7.30;99.90;;;;;;4937737;28;92159;-35
2022/11/25 03:08:21;;;;;;;18.48;7.35;;;7.40;99.90;;;;;;4937398;28;94272;-32
2022/11/25 03:10:47;;;;;;;17.52;7.05;;;7.40;99.90;;;;;;4936671;28;95501;-33
2022/11/25 03:13:12;;;;;;;12.65;6.72;;;7.30;99.90;;;;;;4937837;28;96344;-34
2022/11/25 03:15:38;;;;;;;16.70;7.07;;;7.30;99.90;;;;;;4937201;28;94031;-34
2022/11/25 03:18:04;;;;;;;10.43;5.75;;;7.30;99.90;;;;;;4937674;28;93690;-32
2022/11/25 03:20:30;;;;;;;21.83;7.38;;;7.30;99.90;;;;;;4937137;28;94687;-33
2022/11/25 03:22:56;;;;;;;17.33;6.95;;;7.30;99.90;;;;;;4952082;28;94924;-33
2022/11/25 03:25:21;;;;;;;21.65;7.63;;;7.40;99.90;;;;;;4937350;28;92163;-34
2022/11/25 03:27:47;;;;;;;16.92;7.75;;;7.40;99.90;;;;;;4937062;28;91446;-33
2022/11/25 03:30:19;;;;;;;11.38;6.45;;;7.40;99.90;;;;;;4937582;28;94984;-35
2022/11/25 03:32:45;;;;;;;23.85;7.40;;;7.30;99.90;;;;;;4936333;28;95465;-33
2022/11/25 03:35:11;;;;;;;18.23;7.80;;;7.40;99.90;;;;;;4937164;28;94094;-31
2022/11/25 03:37:38;;;;;;;21.10;8.40;;;7.40;99.90;;;;;;4936826;28;93547;-33
2022/11/25 03:40:05;;;;;;;20.30;7.63;;;7.40;99.90;;;;;;4937166;28;94395;-32
2022/11/25 03:42:30;;;;;;;29.77;8.68;;;7.40;99.90;;;;;;4937107;28;94315;-32
2022/11/25 03:44:56;;;;;;;21.75;6.85;;;7.40;99.90;;;;;;4937403;28;94180;-32
2022/11/25 03:47:22;;;;;;;15.32;7.95;;;7.40;99.90;;;;;;4937302;28;93374;-35
2022/11/25 03:49:47;;;;;;;12.60;7.45;;;7.40;99.90;;;;;;4936509;28;94516;-34
2022/11/25 03:52:13;;;;;;;18.67;6.50;;;7.40;99.90;;;;;;4936955;28;94634;-35
2022/11/25 03:54:38;;;;;;;18.83;8.20;;;7.40;99.90;;;;;;4937279;28;92920;-32
2022/11/25 03:57:04;;;;;;;12.07;7.47;;;7.40;99.90;;;;;;4937212;28;94527;-32
2022/11/25 03:59:30;;;;;;;23.60;8.20;;;7.40;99.90;;;;;;4936408;28;95871;-34
2022/11/25 04:01:55;;;;;;;19.95;8.48;;;7.40;99.90;;;;;;4936259;28;95232;-32
2022/11/25 04:04:21;;;;;;;11.63;6.97;;;7.40;99.90;;;;;;4936874;28;94472;-35
2022/11/25 04:06:47;;;;;;;21.13;7.03;;;7.40;99.90;;;;;;4936338;28;92546;-31
2022/11/25 04:09:12;;;;;;;21.05;7.90;;;7.30;99.90;;;;;;4936161;28;94550;-34
2022/11/25 04:14:22;;;;;;;14.15;7.57;;;7.40;99.90;;;;;;4936233;28;94281;-32
2022/11/25 04:16:48;;;;;;;15.57;7.00;;;7.30;99.90;;;;;;4937114;28;91902;-32
2022/11/25 04:19:14;;;;;;;23.00;8.32;;;7.30;99.90;;;;;;4936244;28;94681;-35
2022/11/25 04:21:39;;;;;;;16.48;7.22;;;7.40;99.90;;;;;;4939459;28;94968;-33
2022/11/25 04:24:06;;;;;;;18.23;6.32;;;7.40;99.90;;;;;;4939487;28;94674;-32
2022/11/25 04:26:31;;;;;;;17.02;7.88;;;7.40;99.90;;;;;;4939380;28;94806;-32
2022/11/25 04:28:57;;;;;;;16.42;7.72;;;7.30;99.90;;;;;;4939818;28;94500;-33
2022/11/25 04:31:22;;;;;;;18.25;7.70;;;7.40;99.90;;;;;;4939911;28;93267;-32
2022/11/25 04:33:48;;;;;;;13.00;7.13;;;7.40;99.90;;;;;;4940666;28;94352;-35
2022/11/25 04:36:14;;;;;;;13.32;7.47;;;7.40;99.90;;;;;;4939592;28;93492;-35
2022/11/25 04:38:39;;;;;;;14.10;8.00;;;7.40;99.90;;;;;;4939314;28;94672;-35
2022/11/25 04:41:05;;;;;;;14.40;7.82;;;7.40;99.90;;;;;;4940006;28;94515;-32
2022/11/25 04:43:31;;;;;;;23.40;7.60;;;7.40;99.90;;;;;;4939796;28;93100;-31
2022/11/25 04:45:57;;;;;;;15.27;8.48;;;7.40;99.90;;;;;;4940476;28;92820;-33
2022/11/25 04:48:23;;;;;;;21.33;7.30;;;7.40;99.90;;;;;;4938937;28;95688;-34
2022/11/25 04:50:49;;;;;;;12.55;7.25;;;7.40;99.90;;;;;;4939406;28;95413;-33
2022/11/25 04:53:14;;;;;;;15.30;9.10;;;7.40;99.90;;;;;;4940049;28;94310;-32
2022/11/25 04:55:40;;;;;;;18.50;8.35;;;7.40;99.90;;;;;;4938860;28;94254;-32
2022/11/25 04:58:06;;;;;;;18.63;8.48;;;7.40;99.90;;;;;;4939907;28;94688;-34
2022/11/25 05:00:31;;;;;;;15.73;7.82;;;7.50;99.90;;;;;;4938442;28;94946;-34
2022/11/25 05:02:57;;;;;;;13.43;8.32;;;7.50;99.90;;;;;;4939796;28;94185;-32
2022/11/25 05:05:23;;;;;;;17.30;8.13;;;7.50;99.90;;;;;;4939400;28;93625;-33
2022/11/25 05:07:48;;;;;;;17.85;8.23;;;7.50;99.90;;;;;;4939219;28;95259;-33
2022/11/25 05:10:14;;;;;;;12.38;7.47;;;7.50;99.90;;;;;;4939123;28;95039;-33
2022/11/25 05:12:40;;;;;;;13.73;7.15;;;7.50;99.90;;;;;;4938534;28;95259;-35
2022/11/25 05:15:07;;;;;;;23.95;8.70;;;7.60;99.90;;;;;;4926893;28;94072;-31
2022/11/25 05:17:33;;;;;;;24.63;8.40;;;7.60;99.90;;;;;;4939335;28;95188;-31
2022/11/25 05:19:59;;;;;;;20.17;7.82;;;7.60;99.90;;;;;;4938535;28;94561;-32
2022/11/25 05:22:28;;;;;;;14.15;7.80;;;7.60;99.90;;;;;;4939602;28;93673;-33
2022/11/25 05:24:53;;;;;;;;;;;7.60;99.90;;;;;;4939866;28;95057;-35
2022/11/25 05:27:20;;;;;;;17.23;9.18;;;7.60;99.90;;;;;;4939927;28;94776;-32
2022/11/25 05:29:46;;;;;;;12.63;7.18;;;7.60;99.90;;;;;;4939042;28;94830;-35
2022/11/25 05:32:13;;;;;;;15.20;8.48;;;7.60;99.90;;;;;;4939546;28;94232;-32
2022/11/25 05:34:39;;;;;;;24.52;8.75;;;7.70;99.90;;;;;;4930344;28;94816;-33
2022/11/25 05:37:05;;;;;;;18.92;8.45;;;7.70;99.90;;;;;;4920682;28;95772;-35
2022/11/25 05:39:31;;;;;;;24.00;8.25;;;7.70;99.90;;;;;;4938566;28;95593;-32
2022/11/25 05:41:57;;;;;;;16.00;8.13;;;7.70;99.90;;;;;;4938681;28;94735;-32
2022/11/25 05:44:23;;;;;;;14.45;8.02;;;7.70;99.90;;;;;;4939330;28;93894;-32
2022/11/25 05:46:49;;;;;;;17.42;9.68;;;7.70;99.90;;;;;;4939048;28;95439;-34
2022/11/25 05:49:15;;;;;;;20.27;9.43;;;7.70;99.90;;;;;;4938752;28;95224;-32
2022/11/25 05:51:41;;;;;;;20.33;8.80;;;7.70;99.90;;;;;;4939227;28;92972;-32
2022/11/25 05:54:06;;;;;;;23.33;9.23;;;7.70;99.90;;;;;;4938815;28;93977;-32
2022/11/25 05:56:32;;;;;;;15.77;8.85;;;7.70;99.90;;;;;;4938565;28;94876;-34
2022/11/25 05:58:59;;;;;;;17.85;8.60;;;7.80;99.90;;;;;;4938379;28;94574;-32
2022/11/25 06:01:25;;;;;;;18.02;9.50;;;7.80;99.90;;;;;;4937792;28;94658;-34
2022/11/25 06:03:50;;;;;;;21.30;9.15;;;7.80;99.90;;;;;;4938746;28;93762;-32
2022/11/25 06:06:16;;;;;;;18.67;9.07;;;7.80;99.90;;;;;;4937959;28;94760;-33
2022/11/25 06:08:42;;;;;;;21.35;9.45;;;7.90;99.90;;;;;;4938506;28;94788;-32
2022/11/25 06:11:11;;;;;;;19.67;9.20;;;7.80;99.90;;;;;;4939230;28;93190;-33
2022/11/25 06:13:38;;;;;;;16.88;8.68;;;7.90;99.90;;;;;;4937451;28;93146;-35
2022/11/25 06:16:21;;;;;;;17.02;8.18;;;7.90;99.90;;;;;;4937273;28;94861;-32
2022/11/25 06:18:46;;;;;;;28.10;9.82;;;7.90;99.90;;;;;;4938220;28;94597;-32
2022/11/25 06:21:13;;;;;;;20.55;8.68;;;7.90;99.90;;;;;;4938532;28;93331;-35
2022/11/25 06:23:39;;;;;;;29.85;11.05;;;7.90;99.90;;;;;;4938554;28;93722;-33
2022/11/25 06:26:05;;;;;;;18.58;10.15;;;7.90;99.90;;;;;;4936056;28;95073;-32
2022/11/25 06:28:31;;;;;;;17.58;9.70;;;7.90;99.90;;;;;;4935736;28;95369;-34
2022/11/25 06:31:16;;;;;;;23.20;11.13;;;8.00;99.90;;;;;;4938737;28;94590;-32
2022/11/25 06:33:41;;;;;;;20.88;9.93;;;8.10;99.90;;;;;;4935852;28;93521;-32
2022/11/25 06:36:15;;;;;;;22.27;11.27;;;8.10;99.90;;;;;;4938555;28;94723;-32
2022/11/25 06:38:45;;;;;;;18.90;11.02;;;8.00;99.90;;;;;;4936621;28;94426;-34
2022/11/25 06:41:11;;;;;;;23.20;10.73;;;8.10;99.90;;;;;;4937026;28;94336;-32
2022/11/25 06:43:37;;;;;;;19.52;10.35;;;8.00;99.90;;;;;;4937176;28;93544;-33
2022/11/25 06:46:08;;;;;;;18.80;10.45;;;8.10;99.90;;;;;;4936824;28;93641;-34
2022/11/25 06:48:34;;;;;;;27.15;11.82;;;8.10;99.90;;;;;;4936925;28;94495;-34
2022/11/25 06:51:03;;;;;;;21.73;11.60;;;8.10;99.90;;;;;;4936733;28;94314;-32
2022/11/25 06:53:30;;;;;;;16.40;10.77;;;8.10;99.90;;;;;;4936475;28;92972;-32
2022/11/25 06:56:03;;;;;;;15.68;10.07;;;8.10;99.90;;;;;;4937460;28;93651;-34
2022/11/25 06:58:29;;;;;;;26.98;11.48;;;8.10;99.90;;;;;;4936815;28;94510;-35
2022/11/25 07:01:04;;;;;;;29.80;10.73;;;8.00;99.90;;;;;;4937140;28;94426;-34
2022/11/25 07:03:30;;;;;;;15.25;10.27;;;8.10;99.90;;;;;;4936423;28;94252;-34
2022/11/25 07:05:57;;;;;;;20.38;11.10;;;8.10;99.90;;;;;;4934840;28;94207;-35
2022/11/25 07:08:23;;;;;;;18.08;10.30;;;8.10;99.90;;;;;;4937382;28;94943;-33
2022/11/25 07:10:49;;;;;;;21.92;11.85;;;8.10;99.90;;;;;;4937449;28;92306;-34
2022/11/25 07:13:15;;;;;;;19.65;10.07;;;8.10;99.90;;;;;;4934894;28;94706;-35
2022/11/25 07:15:40;;;;;;;17.25;10.40;;;8.10;99.90;;;;;;4935987;28;95585;-32
2022/11/25 07:18:06;;;;;;;23.15;10.13;;;8.10;99.90;;;;;;4936427;28;95873;-32
2022/11/25 07:20:31;;;;;;;14.65;9.13;;;8.10;99.90;;;;;;4937175;28;92761;-32
2022/11/25 07:22:57;;;;;;;18.90;9.38;;;8.10;99.90;;;;;;4937115;28;94154;-34
2022/11/25 07:25:23;;;;;;;18.00;10.23;;;8.10;99.90;;;;;;4912990;28;94392;-34
2022/11/25 07:27:48;;;;;;;16.83;8.10;;;8.10;99.90;;;;;;4911792;28;95755;-34
2022/11/25 07:30:14;;;;;;;15.85;8.98;;;8.10;99.90;;;;;;4937645;28;92919;-36
2022/11/25 07:32:40;;;;;;;19.20;8.70;;;8.10;99.90;;;;;;4938289;28;93649;-31
2022/11/25 07:35:06;;;;;;;17.13;8.20;;;8.20;99.90;;;;;;4935336;28;94266;-32
2022/11/25 07:37:31;;;;;;;24.92;9.65;;;8.10;99.90;;;;;;4936947;28;94678;-33
2022/11/25 07:39:57;;;;;;;19.38;9.23;;;8.10;99.90;;;;;;4936315;28;94350;-34
2022/11/25 07:42:23;;;;;;;14.20;8.63;;;8.10;99.90;;;;;;4937256;28;93111;-32
2022/11/25 07:44:49;;;;;;;11.20;8.40;;;8.20;99.90;;;;;;4937646;28;95167;-32
2022/11/25 07:47:14;;;;;;;16.98;7.55;;;8.10;99.90;;;;;;4936622;28;94554;-33
2022/11/25 07:49:40;;;;;;;15.20;7.72;;;8.20;99.90;;;;;;4937257;28;93120;-33
2022/11/25 07:52:05;;;;;;;15.90;8.52;;;8.10;99.90;;;;;;4937136;28;92879;-34
2022/11/25 07:54:32;;;;;;;17.27;8.35;;;8.10;99.90;;;;;;4937314;28;94434;-32
2022/11/25 07:56:57;;;;;;;15.27;7.55;;;8.10;99.90;;;;;;4941238;28;94286;-33
2022/11/25 07:59:23;;;;;;;13.18;8.02;;;8.10;99.90;;;;;;4941379;28;93070;-34
2022/11/25 08:01:51;;;;;;;22.65;8.00;;;8.10;99.90;;;;;;4941066;28;93649;-34
2022/11/25 08:04:17;;;;;;;10.93;5.60;;;8.10;99.90;;;;;;4925304;28;95600;-32
2022/11/25 08:06:44;;;;;;;14.40;7.47;;;8.00;99.90;;;;;;4920587;28;95745;-32
2022/11/25 08:09:13;;;;;;;13.48;7.53;;;8.00;99.90;;;;;;4921623;28;94902;-33
2022/11/25 08:11:39;;;;;;;16.48;8.05;;;8.00;99.90;;;;;;4921166;28;93645;-33
2022/11/25 08:14:05;;;;;;;11.13;6.47;;;7.90;99.90;;;;;;4920198;28;94769;-35
2022/11/25 08:16:31;;;;;;;17.38;8.70;;;7.90;99.90;;;;;;4920191;28;94717;-33
2022/11/25 08:18:58;;;;;;;11.98;7.13;;;7.90;99.90;;;;;;4921356;28;93026;-33
2022/11/25 08:21:25;;;;;;;18.43;8.80;;;7.90;99.90;;;;;;4914653;28;92008;-34
2022/11/25 08:23:51;;;;;;;12.63;7.25;;;7.90;99.90;;;;;;4920367;28;93677;-34
2022/11/25 08:26:29;;;;;;;14.48;7.25;;;7.90;99.90;;;;;;4920895;28;94459;-31
2022/11/25 08:28:56;;;;;;;20.20;9.15;;;7.90;99.90;;;;;;4934747;28;93734;-32
2022/11/25 08:31:27;;;;;;;16.25;7.93;;;7.90;99.90;;;;;;4939711;28;92241;-33
2022/11/25 08:33:54;;;;;;;18.85;7.60;;;7.90;99.90;;;;;;4939879;28;94791;-34
2022/11/25 08:36:20;;;;;;;14.93;6.63;;;7.90;99.90;;;;;;4939365;28;94533;-33
2022/11/25 08:38:48;;;;;;;9.73;6.38;;;7.90;99.90;;;;;;4940288;28;93230;-34
2022/11/25 08:41:21;;;;;;;21.90;7.38;;;7.90;99.90;;;;;;4940417;28;94249;-32
2022/11/25 08:43:47;;;;;;;15.07;7.00;;;8.00;99.90;;;;;;4939504;28;94507;-35
2022/11/25 08:46:17;;;;;;;22.50;7.75;;;8.00;99.90;;;;;;4940104;28;94600;-34
2022/11/25 08:48:43;;;;;;;13.48;6.80;;;8.00;99.90;;;;;;4940220;28;92693;-32
2022/11/25 08:51:13;;;;;;;14.60;7.97;;;8.10;99.90;;;;;;4939303;28;94289;-32
2022/11/25 08:53:40;;;;;;;15.95;6.55;;;8.10;99.90;;;;;;4938803;28;95148;-33
2022/11/25 08:56:07;;;;;;;18.73;6.65;;;8.10;99.90;;;;;;4939522;28;95484;-32
2022/11/25 08:58:33;;;;;;;14.35;7.10;;;8.20;99.90;;;;;;4940102;28;92224;-34
2022/11/25 09:01:00;;;;;;;14.23;7.35;;;8.20;99.90;;;;;;4938902;28;93429;-33
2022/11/25 09:03:26;;;;;;;10.45;6.72;;;8.40;99.90;;;;;;4937350;28;94661;-32
2022/11/25 09:05:52;;;;;;;17.35;7.68;;;8.40;99.90;;;;;;4939370;28;94685;-34
2022/11/25 09:08:18;;;;;;;17.00;7.45;;;8.40;99.90;;;;;;4939931;28;93062;-33
2022/11/25 09:10:44;;;;;;;13.82;7.28;;;8.50;99.90;;;;;;4939734;28;91919;-33
2022/11/25 09:13:10;;;;;;;11.02;7.13;;;8.60;99.90;;;;;;4938136;28;94984;-32
2022/11/25 09:15:37;;;;;;;11.38;8.00;;;8.60;99.90;;;;;;4965433;22;94525;-32
2022/11/25 09:18:05;;;;;;;17.60;8.55;;;8.70;99.90;;;;;;4935704;28;95446;-33
2022/11/25 09:20:31;;;;;;;;;;;8.70;99.90;;;;;;4954707;28;92698;-35
2022/11/25 09:23:01;;;;;;;11.27;8.32;;;8.70;99.90;;;;;;4939838;28;94817;-33
2022/11/25 09:25:27;;;;;;;17.67;8.55;;;8.80;99.90;;;;;;4938270;28;94588;-33
2022/11/25 09:27:54;;;;;;;14.48;8.05;;;8.90;99.90;;;;;;4939479;28;93976;-34
2022/11/25 09:30:19;;;;;;;12.50;7.93;;;8.90;99.90;;;;;;4939450;28;93765;-32
2022/11/25 09:32:48;;;;;;;10.23;7.78;;;8.90;99.90;;;;;;4925642;28;95092;-33
2022/11/25 09:35:14;;;;;;;15.65;8.73;;;8.90;99.90;;;;;;4938571;28;94559;-33
2022/11/25 09:37:39;;;;;;;19.80;9.45;;;9.00;99.90;;;;;;4912941;28;93454;-34
2022/11/25 09:40:07;;;;;;;11.57;7.43;;;9.00;99.90;;;;;;4916544;28;92960;-35
2022/11/25 09:48:56;;;;;;;18.98;9.88;;;9.10;99.90;;;;;;4911559;28;93389;-33
2022/11/25 09:51:33;;;;;;;13.98;8.82;;;9.10;99.90;;;;;;4913357;28;93611;-32
2022/11/25 09:54:15;;;;;;;13.82;8.85;;;9.20;99.90;;;;;;4916819;28;95409;-34
2022/11/25 09:56:46;;;;;;;12.18;8.13;;;9.20;99.90;;;;;;4917340;28;94810;-34
2022/11/25 09:59:19;;;;;;;10.73;8.00;;;9.30;99.90;;;;;;4917622;28;93323;-32
2022/11/25 10:02:00;;;;;;;14.68;8.13;;;9.30;99.90;;;;;;4919129;28;93727;-33
2022/11/25 10:04:34;;;;;;;11.65;7.82;;;9.40;99.90;;;;;;4916814;28;95008;-32
2022/11/25 10:07:02;;;;;;;13.80;8.18;;;9.40;99.90;;;;;;4916286;28;94569;-32
2022/11/25 10:09:32;;;;;;;11.40;7.70;;;9.40;99.90;;;;;;4916169;28;95329;-33
2022/11/25 10:12:24;;;;;;;12.63;7.38;;;9.50;99.90;;;;;;4915256;28;93480;-33
2022/11/25 10:15:01;;;;;;;10.82;8.13;;;9.50;99.90;;;;;;4903738;28;94729;-34
2022/11/25 10:17:45;;;;;;;8.75;5.78;;;9.60;99.90;;;;;;4912731;28;94533;-35
2022/11/25 10:20:16;;;;;;;13.20;7.43;;;9.60;99.90;;;;;;4916308;28;94289;-33
2022/11/25 10:22:48;;;;;;;15.57;7.90;;;9.70;99.90;;;;;;4916639;28;94473;-33
2022/11/25 10:25:15;;;;;;;8.82;6.30;;;9.70;99.90;;;;;;4916092;28;95469;-35
2022/11/25 10:27:56;;;;;;;10.43;6.25;;;9.70;99.90;;;;;;4919660;28;93304;-34
2022/11/25 10:30:25;;;;;;;11.10;7.25;;;9.80;99.90;;;;;;4936316;28;92163;-33
2022/11/25 10:33:03;;;;;;;12.63;7.47;;;9.80;99.90;;;;;;4936542;28;93365;-33
2022/11/25 10:35:40;;;;;;;12.13;7.28;;;9.80;99.90;;;;;;4934966;28;95620;-32
2022/11/25 10:38:13;;;;;;;14.68;6.50;;;9.90;99.90;;;;;;4921598;28;96042;-34
2022/11/25 10:40:38;;;;;;;12.00;6.97;;;9.90;99.90;;;;;;4908122;28;93080;-34
2022/11/25 10:43:12;;;;;;;16.95;6.38;;;10.00;99.90;;;;;;4915653;28;93152;-34
2022/11/25 10:45:51;;;;;;;10.07;5.72;;;10.00;99.90;;;;;;4915671;28;93415;-35
2022/11/25 10:48:16;;;;;;;;;;;10.00;99.90;;;;;;4914862;28;94229;-32
2022/11/25 10:51:01;;;;;;;8.60;6.03;;;10.10;99.90;;;;;;4916531;28;93140;-34
2022/11/25 10:53:29;;;;;;;8.30;5.88;;;10.20;99.90;;;;;;4914692;28;92796;-34
2022/11/25 10:56:02;;;;;;;13.67;5.83;;;10.20;99.90;;;;;;4916025;28;95723;-33
2022/11/25 10:58:36;;;;;;;10.07;5.22;;;10.30;99.90;;;;;;4915553;28;94879;-32
2022/11/25 11:01:18;;;;;;;8.32;5.32;;;10.30;99.90;;;;;;4915338;28;95583;-34
2022/11/25 11:03:50;;;;;;;15.65;5.22;;;10.40;99.90;;;;;;4911868;28;94302;-35
2022/11/25 11:06:48;;;;;;;9.85;4.90;;;10.50;99.90;;;;;;4914862;28;95033;-33
2022/11/25 11:09:35;;;;;;;10.18;5.45;;;10.50;99.90;;;;;;4898412;28;94424;-33
2022/11/25 11:12:28;;;;;;;8.00;5.43;;;10.60;99.90;;;;;;4914698;28;94326;-34
2022/11/25 11:15:23;;;;;;;13.27;6.03;;;10.70;99.90;;;;;;4915385;28;93703;-35
2022/11/25 11:17:49;;;;;;;10.25;5.35;;;10.70;99.90;;;;;;4914931;28;94834;-34
2022/11/25 11:20:23;;;;;;;8.07;4.63;;;10.80;99.90;;;;;;4915709;28;93712;-35
2022/11/25 11:23:08;;;;;;;8.98;5.72;;;10.80;99.90;;;;;;4915705;28;93667;-33
2022/11/25 11:25:36;;;;;;;10.73;5.35;;;10.90;99.90;;;;;;4914516;28;93210;-34
2022/11/25 11:28:23;;;;;;;6.93;3.95;;;10.90;99.90;;;;;;4920395;28;96689;-36
2022/11/25 11:31:23;;;;;;;9.90;6.03;;;11.00;99.90;;;;;;4934093;28;97619;-33
2022/11/25 11:34:09;;;;;;;9.32;5.38;;;11.10;99.90;;;;;;4935080;28;93323;-36
2022/11/25 11:37:05;;;;;;;8.00;4.40;;;11.10;99.90;;;;;;4933145;28;93048;-33
2022/11/25 11:39:58;;;;;;;8.85;4.70;;;11.10;99.90;;;;;;4922438;28;94698;-34
2022/11/25 11:42:50;;;;;;;11.27;4.30;;;11.10;99.90;;;;;;4912695;28;94747;-33
2022/11/25 11:45:24;;;;;;;7.60;4.65;;;11.10;99.90;;;;;;4915925;28;94973;-34
2022/11/25 11:48:08;;;;;;;7.55;3.47;;;11.20;99.90;;;;;;4915529;28;93154;-34
2022/11/25 11:50:59;;;;;;;10.63;5.50;;;11.30;99.90;;;;;;4913907;28;94765;-33
2022/11/25 11:53:39;;;;;;;10.20;4.45;;;11.30;99.90;;;;;;4913988;28;94385;-34
2022/11/25 11:56:16;;;;;;;12.35;4.18;;;11.40;99.90;;;;;;4914457;28;95132;-37
2022/11/25 11:59:05;;;;;;;10.98;5.57;;;11.50;99.90;;;;;;4915329;28;94341;-35
2022/11/25 12:01:38;;;;;;;13.02;5.05;;;11.50;99.90;;;;;;4914674;28;95241;-32
2022/11/25 12:04:40;;;;;;;15.07;5.88;;;11.50;99.90;;;;;;4914220;28;94470;-34
2022/11/25 12:07:47;;;;;;;9.70;4.93;;;11.50;99.90;;;;;;4913712;28;92975;-32
2022/11/25 12:10:13;;;;;;;6.57;3.63;;;11.60;99.90;;;;;;4912536;28;94358;-33
2022/11/25 12:12:49;;;;;;;9.23;4.00;;;11.60;99.90;;;;;;4914429;28;93323;-32
2022/11/25 12:15:42;;;;;;;10.05;4.60;;;11.70;99.90;;;;;;4914173;28;95184;-34
2022/11/25 12:18:19;;;;;;;10.82;3.25;;;11.60;99.90;;;;;;4914807;28;93260;-33
2022/11/25 12:21:04;;;;;;;4.43;3.20;;;11.60;99.90;;;;;;4914505;28;92380;-36
2022/11/25 12:23:39;;;;;;;11.50;4.65;;;11.50;99.90;;;;;;4912996;28;94183;-35
2022/11/25 12:26:11;;;;;;;13.15;4.38;;;11.40;99.90;;;;;;4914488;28;95402;-36
2022/11/25 12:28:58;;;;;;;6.68;3.90;;;11.30;99.90;;;;;;4925298;28;92673;-35
2022/11/25 12:31:29;;;;;;;8.48;3.45;;;11.30;99.90;;;;;;4933706;28;92630;-36
2022/11/25 12:34:26;;;;;;;6.43;3.78;;;11.20;99.90;;;;;;4934360;28;94224;-33
2022/11/25 12:37:01;;;;;;;8.60;3.93;;;11.10;99.90;;;;;;4934296;28;95029;-34
2022/11/25 12:40:06;;;;;;;18.52;5.50;;;11.10;99.90;;;;;;4933759;28;94747;-34
2022/11/25 12:42:35;;;;;;;10.38;4.05;;;11.10;99.90;;;;;;4937678;28;92283;-34
2022/11/25 12:45:01;;;;;;;5.70;3.38;;;11.10;99.90;;;;;;4929121;28;94890;-35
2022/11/25 12:47:26;;;;;;;10.07;3.90;;;11.10;99.90;;;;;;4922147;28;94523;-34
2022/11/25 12:49:54;;;;;;;8.32;4.50;;;11.10;99.90;;;;;;4916751;28;94655;-35
2022/11/25 12:52:49;;;;;;;10.67;4.77;;;11.10;99.90;;;;;;4917915;28;93904;-35
2022/11/25 12:55:26;;;;;;;11.40;3.72;;;11.10;99.90;;;;;;4906085;28;94799;-34
2022/11/25 12:58:22;;;;;;;8.90;3.60;;;11.00;99.90;;;;;;4918011;28;94122;-36
2022/11/25 13:01:07;;;;;;;9.77;3.33;;;10.90;99.90;;;;;;4911663;28;93991;-34
2022/11/25 13:03:45;;;;;;;11.48;4.10;;;10.80;99.90;;;;;;4917238;28;95733;-35
2022/11/25 13:06:30;;;;;;;4.97;2.67;;;10.80;99.90;;;;;;4917887;28;94763;-34
2022/11/25 13:09:22;;;;;;;8.73;4.15;;;10.80;99.90;;;;;;4918977;28;94270;-35
2022/11/25 13:12:10;;;;;;;7.90;3.78;;;10.70;99.90;;;;;;4918655;28;93922;-35
2022/11/25 13:15:05;;;;;;;11.93;4.32;;;10.70;99.90;;;;;;4916818;28;93388;-35
2022/11/25 13:17:38;;;;;;;10.32;4.15;;;10.60;99.90;;;;;;4917604;28;95973;-35